createdAt,value
2023-03-03T09:40:34.717Z,1.3
2023-03-03T09:41:58.122Z,1.3
2023-03-03T09:43:21.537Z,1.3
2023-03-03T09:44:44.964Z,1.3
2023-03-03T09:46:08.362Z,1.5
2023-03-03T09:47:31.768Z,1.6
2023-03-03T09:48:55.176Z,1.5
2023-03-03T09:50:17.592Z,1.6
2023-03-03T09:51:40.999Z,1.6
2023-03-03T09:53:04.419Z,1.5
2023-03-03T09:54:27.832Z,1.4
2023-03-03T09:55:51.238Z,1.5
2023-03-03T09:57:14.636Z,1.5
2023-03-03T09:58:38.047Z,1.5
2023-03-03T10:00:00.485Z,1.5
2023-03-03T10:01:22.904Z,1.6
2023-03-03T10:02:45.333Z,1.4
2023-03-03T10:04:07.758Z,1.3
2023-03-03T10:05:31.164Z,1.4
2023-03-03T10:06:54.579Z,1.4
2023-03-03T10:08:17.978Z,1.3
2023-03-03T10:09:41.403Z,1.2
2023-03-03T10:11:04.800Z,1.3
2023-03-03T10:12:28.212Z,1.2
2023-03-03T10:13:51.629Z,1.2
2023-03-03T10:15:15.024Z,1.4
2023-03-03T10:16:38.437Z,1.3
2023-03-03T10:18:01.848Z,1.4
2023-03-03T10:19:25.269Z,1.4
2023-03-03T10:20:48.666Z,1.6
2023-03-03T10:22:11.082Z,1.6
2023-03-03T10:23:34.494Z,1.6
2023-03-03T10:24:57.903Z,1.7
2023-03-03T10:26:21.299Z,1.7
2023-03-03T10:27:44.726Z,1.6
2023-03-03T10:29:08.132Z,1.8
2023-03-03T10:30:31.541Z,1.9
2023-03-03T10:31:53.978Z,1.7
2023-03-03T10:33:16.398Z,1.7
2023-03-03T10:34:38.815Z,1.8
2023-03-03T10:36:01.252Z,1.8
2023-03-03T10:37:23.684Z,1.8
2023-03-03T10:38:46.111Z,1.8
2023-03-03T10:40:09.515Z,1.8
2023-03-03T10:41:32.929Z,1.8
2023-03-03T10:42:56.326Z,1.9
2023-03-03T10:44:19.728Z,1.9
2023-03-03T10:45:43.144Z,1.7
2023-03-03T10:47:06.551Z,1.9
2023-03-03T10:48:29.949Z,1.9
2023-03-03T10:49:53.369Z,2
2023-03-03T10:51:16.779Z,2
2023-03-03T10:52:40.188Z,2.1
2023-03-03T10:54:03.579Z,2.1
2023-03-03T10:55:26.989Z,2.1
2023-03-03T10:56:49.417Z,2.1
2023-03-03T10:58:12.836Z,2.2
2023-03-03T10:59:36.228Z,2.2
2023-03-03T11:00:59.649Z,2.2
2023-03-03T11:02:23.061Z,2.2
2023-03-03T11:03:46.463Z,2.2
2023-03-03T11:05:09.863Z,2.2
2023-03-03T11:06:32.314Z,2.2
2023-03-03T11:07:54.737Z,2.3
2023-03-03T11:09:17.153Z,2.2
2023-03-03T11:10:39.581Z,2.2
2023-03-03T11:12:02.998Z,2.2
2023-03-03T11:13:26.410Z,2.2
2023-03-03T11:14:49.797Z,2.2
2023-03-03T11:16:13.211Z,2.2
2023-03-03T11:17:36.629Z,2.2
2023-03-03T11:19:00.025Z,2.2
2023-03-03T11:20:23.439Z,2.3
2023-03-03T11:21:46.855Z,2.4
2023-03-03T11:23:10.250Z,2.5
2023-03-03T11:24:33.663Z,2.4
2023-03-03T11:25:57.076Z,2.4
2023-03-03T11:27:20.475Z,2.4
2023-03-03T11:28:42.897Z,2.3
2023-03-03T11:30:06.304Z,2.4
2023-03-03T11:31:29.720Z,2.4
2023-03-03T11:32:53.123Z,2.5
2023-03-03T11:34:16.523Z,2.4
2023-03-03T11:35:39.942Z,2.4
2023-03-03T11:37:03.342Z,2.5
2023-03-03T11:38:25.774Z,2.5
2023-03-03T11:39:48.204Z,2.5
2023-03-03T11:41:10.629Z,2.5
2023-03-03T11:42:33.061Z,2.5
2023-03-03T11:43:56.465Z,2.5
2023-03-03T11:45:19.867Z,2.5
2023-03-03T11:46:43.277Z,2.4
2023-03-03T11:48:06.692Z,2.4
2023-03-03T11:49:30.086Z,2.4
2023-03-03T11:50:53.508Z,2.4
2023-03-03T11:52:16.913Z,2.4
2023-03-03T11:53:40.313Z,2.4
2023-03-03T11:55:03.719Z,2.4
2023-03-03T11:56:27.140Z,2.4
2023-03-03T11:57:50.528Z,2.5
2023-03-03T11:59:13.955Z,2.4
2023-03-03T12:00:36.361Z,2.4
2023-03-03T12:01:59.784Z,2.4
2023-03-03T12:03:23.179Z,2.3
2023-03-03T12:04:46.594Z,2.4
2023-03-03T12:06:09.998Z,2.5
2023-03-03T12:07:33.399Z,2.6
2023-03-03T12:08:56.813Z,2.5
2023-03-03T12:10:19.252Z,2.6
2023-03-03T12:11:41.673Z,2.5
2023-03-03T12:13:05.056Z,2.7
2023-03-03T12:14:28.468Z,2.7
2023-03-03T12:15:51.872Z,2.6
2023-03-03T12:17:15.269Z,2.5
2023-03-03T12:18:38.681Z,2.6
2023-03-03T12:20:02.092Z,2.7
2023-03-03T12:21:25.497Z,2.7
2023-03-03T12:22:48.903Z,2.6
2023-03-03T12:24:12.308Z,2.6
2023-03-03T12:25:35.714Z,2.6
2023-03-03T12:26:59.124Z,2.6
2023-03-03T12:28:22.527Z,2.7
2023-03-03T12:29:44.952Z,2.7
2023-03-03T12:31:08.353Z,2.7
2023-03-03T12:32:31.760Z,2.7
2023-03-03T12:33:55.182Z,2.6
2023-03-03T12:35:18.586Z,2.5
2023-03-03T12:36:41.983Z,2.5
2023-03-03T12:38:05.407Z,2.6
2023-03-03T12:39:27.838Z,2.5
2023-03-03T12:40:50.247Z,2.6
2023-03-03T12:42:12.690Z,2.6
2023-03-03T12:43:35.113Z,2.5
2023-03-03T12:44:58.512Z,2.7
2023-03-03T12:46:21.930Z,2.7
2023-03-03T12:47:45.326Z,2.7
2023-03-03T12:49:08.736Z,2.7
2023-03-03T12:50:32.156Z,2.7
2023-03-03T12:51:55.548Z,2.5
2023-03-03T12:53:18.960Z,2.4
2023-03-03T12:54:42.372Z,2.5
2023-03-03T12:56:05.780Z,2.4
2023-03-03T12:57:29.179Z,2.5
2023-03-03T12:58:52.599Z,2.6
2023-03-03T13:00:16.000Z,2.6
2023-03-03T13:01:38.419Z,2.7
2023-03-03T13:03:01.833Z,2.8
2023-03-03T13:04:25.251Z,2.7
2023-03-03T13:05:48.651Z,2.7
2023-03-03T13:07:12.048Z,2.7
2023-03-03T13:08:35.465Z,2.7
2023-03-03T13:09:58.881Z,2.8
2023-03-03T13:11:21.308Z,2.9
2023-03-03T13:12:43.732Z,2.8
2023-03-03T13:14:07.125Z,2.9
2023-03-03T13:15:30.535Z,2.9
2023-03-03T13:16:53.955Z,2.9
2023-03-03T13:18:17.362Z,2.9
2023-03-03T13:19:40.756Z,2.9
2023-03-03T13:21:04.181Z,2.9
2023-03-03T13:22:27.583Z,2.9
2023-03-03T13:23:50.993Z,2.8
2023-03-03T13:39:14.248Z,3.1
2023-03-03T13:54:37.514Z,3.1
2023-03-03T13:56:00.932Z,3.1
2023-03-03T13:57:24.344Z,3
2023-03-03T13:58:46.763Z,3
2023-03-03T14:00:10.163Z,3
2023-03-03T14:01:33.582Z,3.1
2023-03-03T14:02:56.991Z,3.1
2023-03-03T14:04:20.394Z,3
2023-03-03T14:05:43.799Z,3.2
2023-03-03T14:07:07.191Z,3.1
2023-03-03T14:08:29.633Z,3.2
2023-03-03T14:09:52.061Z,3.1
2023-03-03T14:11:14.493Z,3.2
2023-03-03T14:12:36.920Z,3.2
2023-03-03T14:13:59.350Z,3.2
2023-03-03T14:15:21.777Z,3.3
2023-03-03T14:16:45.177Z,3.1
2023-03-03T14:18:08.591Z,3.1
2023-03-03T14:19:32.000Z,3.1
2023-03-03T14:20:55.391Z,3.1
2023-03-03T14:22:18.808Z,3.2
2023-03-03T14:23:42.216Z,3.1
2023-03-03T14:25:05.617Z,3.2
2023-03-03T14:26:29.033Z,3.3
2023-03-03T14:27:52.435Z,3.3
2023-03-03T14:29:15.852Z,3.2
2023-03-03T14:30:39.246Z,3.3
2023-03-03T14:32:02.665Z,3.3
2023-03-03T14:33:25.088Z,3.3
2023-03-03T14:34:48.486Z,3.1
2023-03-03T14:36:11.903Z,3.1
2023-03-03T14:37:35.310Z,3.2
2023-03-03T14:38:58.708Z,3.2
2023-03-03T14:40:22.127Z,3.2
2023-03-03T14:41:45.518Z,3.1
2023-03-03T14:43:07.966Z,3.1
2023-03-03T14:44:30.394Z,3.1
2023-03-03T14:45:52.830Z,3.1
2023-03-03T14:47:15.236Z,3
2023-03-03T14:48:38.648Z,3
2023-03-03T14:50:02.053Z,3
2023-03-03T14:51:25.472Z,3.1
2023-03-03T14:52:48.882Z,3
2023-03-03T14:54:12.269Z,2.9
2023-03-03T14:55:35.691Z,2.9
2023-03-03T14:56:59.098Z,3.1
2023-03-03T14:58:22.491Z,3
2023-03-03T14:59:45.918Z,3
2023-03-03T15:01:09.323Z,3
2023-03-03T15:02:32.730Z,2.9
2023-03-03T15:03:56.127Z,3
2023-03-03T15:05:18.558Z,2.9
2023-03-03T15:06:41.969Z,2.8
2023-03-03T15:08:05.360Z,2.9
2023-03-03T15:09:28.770Z,2.9
2023-03-03T15:10:52.185Z,3
2023-03-03T15:12:15.586Z,2.9
2023-03-03T15:13:38.987Z,2.9
2023-03-03T15:15:01.439Z,3
2023-03-03T15:16:23.844Z,3
2023-03-03T15:17:46.286Z,3
2023-03-03T15:19:08.711Z,3
2023-03-03T15:20:32.121Z,2.9
2023-03-03T15:35:55.392Z,2.7
2023-03-03T15:51:18.647Z,2.6
2023-03-03T16:06:41.926Z,2.7
2023-03-03T16:22:05.174Z,2.6
2023-03-03T16:37:28.437Z,2.5
2023-03-03T16:52:51.714Z,2.3
2023-03-03T17:08:14.979Z,2.4
2023-03-03T17:23:38.289Z,2.4
2023-03-03T17:39:01.604Z,2.1
2023-03-03T17:54:24.909Z,2.1
2023-03-03T18:09:48.223Z,2.2
2023-03-03T18:25:10.544Z,2.2
2023-03-03T18:40:33.851Z,2.2
2023-03-03T18:55:57.160Z,2.1
2023-03-03T19:11:20.476Z,2.1
2023-03-03T19:42:07.079Z,2.1
2023-03-03T19:57:30.000Z,1.9
2023-03-03T20:12:53.716Z,2.2
2023-03-03T20:28:16.049Z,2.1
2023-03-03T20:43:38.372Z,2.1
2023-03-03T20:59:00.722Z,2.1
2023-03-03T21:14:23.029Z,2
2023-03-03T21:29:46.346Z,2.2
2023-03-03T21:45:09.665Z,2
2023-03-03T22:00:32.963Z,2.1
2023-03-03T22:01:56.416Z,2.1
2023-03-03T22:03:19.869Z,1.9
2023-03-03T22:04:43.309Z,2
2023-03-03T22:06:06.767Z,2.1
2023-03-03T22:07:30.220Z,1.9
2023-03-03T22:08:53.678Z,1.9
2023-03-03T22:10:17.121Z,1.9
2023-03-03T22:11:40.564Z,2
2023-03-03T22:13:04.017Z,1.8
2023-03-03T22:28:26.343Z,1.9
2023-03-03T22:43:49.660Z,2
2023-03-03T22:59:12.986Z,1.7
2023-03-03T23:14:36.278Z,1.7
2023-03-03T23:29:59.607Z,1.6
2023-03-03T23:45:22.913Z,1.5
